Racecast

Rae Dickson

360 Elite Track Club (VA) · 11 · Compare head to head

Athlete rating 94.9
Best race 98.8 TF
Races 45
Seasons 2 2025 — 2026
Speed rating — all races

Track & Field

TF speed rating

2026 TF 94.0

360 Elite Track Club (VA) · Grade 11

Date Meet Event Result Place Rating Difficulty PR/SR Flags
2026-06-13 AAU Virginia District Qualifier - South 80mh 18.44 6th · 1st on team -0.033
2026-06-13 AAU Virginia District Qualifier - South 800m 3:07.04 10th · 1st on team 97.9 -0.033
2026-06-13 AAU Virginia District Qualifier - South 400m 1:13.58 14th · 2nd on team -0.033 ★PR SR
2026-05-24 HR Hurricanes CAT 5 Invite 80mh 17.4 7th · 1st on team -0.035 ★PR SR
2026-05-24 HR Hurricanes CAT 5 Invite 800m 3:04.95 8th · 1st on team 98.8 -0.035 ★PR ★R SR RSR
2026-05-24 HR Hurricanes CAT 5 Invite 400m 1:14.61 16th · 1st on team -0.035 PR SR
2026-05-16 2026 Technique Relays lj DNS -0.035
2026-05-16 2026 Technique Relays 800m 3:05.04 7th · 1st on team 98.7 -0.035 PR R SR RSR
2026-05-16 2026 Technique Relays 1500m 6:54.49 4th · 1st on team 91.3 -0.035 ★PR SR
2026-02-28 BWSP Queens and Kings Championships 55mh 11.87 4th · 1st on team -0.024 ★PR SR
2026-02-28 BWSP Queens and Kings Championships 400m 1:15.95 14th · 1st on team -0.024 PR SR
2026-02-28 BWSP Queens and Kings Championships 200m 32.82 26th · 1st on team -0.024 ★PR SR
2026-02-22 3rd Annual HRH Winter Storm Classic 55mh 12.28 6th · 1st on team -0.024 PR SR
2026-02-22 3rd Annual HRH Winter Storm Classic 800m 3:14.39 10th · 1st on team 95.1 -0.024 PR R SR RSR
2026-02-22 3rd Annual HRH Winter Storm Classic 200m 32.88 36th · 1st on team -0.024 PR SR
2026-01-11 Lighting Track Classic 400m 1:18.66 16th · 1st on team -0.036 PR SR
2026-01-11 Lighting Track Classic 800m 3:22.98 10th · 1st on team 90.3 -0.036 PR R SR RSR
2026-01-11 Lighting Track Classic 1500m 7:22.38 6th · 1st on team 85.7 -0.036 PR SR
2025-12-21 Grant Holloway Invite 60m 10.42 52nd · 1st on team -0.036 ★PR SR
2025-12-21 Grant Holloway Invite 200m 35.3 36th · 1st on team -0.036 SR
2025-12-21 Grant Holloway Invite 400m 1:22.43 35th · 1st on team -0.036 SR

2025 TF 85.7

360 Elite Track Club (VA) · Grade 10

Date Meet Event Result Place Rating Difficulty PR/SR Flags
2025-06-14 AAU Virginia District Qualifier (Southern) 200m 33.68 23rd · 2nd on team -0.041 PR SR
2025-06-14 AAU Virginia District Qualifier (Southern) 800m 3:31.68 18th · 1st on team 85.9 -0.041
2025-06-14 AAU Virginia District Qualifier (Southern) 400m 1:22.14 19th · 1st on team -0.041 PR SR
2025-06-07 Darius Dixon Invite lj FOUL -0.032
2025-06-07 Darius Dixon Invite 400m 1:22.57 23rd · 4th on team -0.032 PR SR
2025-06-07 Darius Dixon Invite 800m 3:41.3 16th · 3rd on team 82.9 -0.032
2025-05-31 Va Beach Flames Invite 100m 17.3 53rd · 4th on team -0.023
2025-05-31 Va Beach Flames Invite 400m 1:25.5 46th · 3rd on team -0.023
2025-05-25 HR Hurricanes CAT 5 Invite 200m 35.73 20th · 1st on team -0.035 PR SR
2025-05-25 HR Hurricanes CAT 5 Invite 800m 3:26.88 6th · 2nd on team 88.3 -0.035 PR R SR RSR
2025-05-25 HR Hurricanes CAT 5 Invite 400m 1:29.36 18th · 2nd on team -0.035
2025-04-27 TRACK 757 Classic 100m 16.66 30th · 5th on team -0.029 ★PR SR
2025-04-27 TRACK 757 Classic 400m 1:26.89 19th · 1st on team -0.029
2025-02-22 BWSP Queens and Kings Championships 400m 1:24.82 21st · 2nd on team -0.014 PR SR
2025-02-22 BWSP Queens and Kings Championships 200m 36.1 26th · 3rd on team -0.014 PR SR
2025-02-22 BWSP Queens and Kings Championships 55m 9.88 34th · 3rd on team -0.014
2025-02-16 HRH Winter Storm Classic 400m 1:27.12 23rd · 2nd on team -0.014 PR SR
2025-02-16 HRH Winter Storm Classic 200m 36.44 25th · 3rd on team -0.014 PR SR
2025-02-16 HRH Winter Storm Classic 55m 9.63 23rd · 3rd on team -0.014 ★PR SR
2025-02-02 Track757 Invite 200m 37.36 41st · 3rd on team -0.036 PR SR
2025-02-02 Track757 Invite 60m 10.62 30th · 3rd on team -0.036 PR SR
2025-01-05 757 Showdown 400m 1:41.63 29th · 3rd on team -0.036 PR SR
2025-01-05 757 Showdown 60m 11.95 36th · 4th on team -0.036 PR SR
2025-01-05 757 Showdown 200m 40.52 42nd · 3rd on team -0.036 PR SR